Time;durP1;ratioP1;P1;durP2;ratioP2;P2;SDS_P1;SDS_P2;PMS_P1;PMS_P2;Temp;Humidity;BMP_temperature;BMP_pressure;BME280_temperature;BME280_humidity;BME280_pressure;Samples;Min_cycle;Max_cycle;Signal;HPM_P1;HPM_P2
2023/03/19 00:01:09;;;;;;;9.98;5.20;;;;;;;;;;5025230;28;20051;-59
2023/03/19 00:03:35;;;;;;;9.85;5.40;;;;;;;;;;5025694;28;20772;-57
2023/03/19 00:06:00;;;;;;;9.77;4.90;;;;;;;;;;5023758;28;20429;-58
2023/03/19 00:08:26;;;;;;;12.35;5.75;;;;;;;;;;5022307;28;20879;-61
2023/03/19 00:10:51;;;;;;;10.40;5.10;;;;;;;;;;5025227;28;20437;-59
2023/03/19 00:13:17;;;;;;;10.18;5.15;;;;;;;;;;5024663;28;20029;-57
2023/03/19 00:15:42;;;;;;;12.52;5.50;;;;;;;;;;5025718;28;20052;-60
2023/03/19 00:18:08;;;;;;;8.15;5.30;;;;;;;;;;5025708;28;20483;-58
2023/03/19 00:20:33;;;;;;;8.45;4.70;;;;;;;;;;5025322;28;20104;-59
2023/03/19 00:22:58;;;;;;;15.00;4.82;;;;;;;;;;5025824;28;20040;-60
2023/03/19 00:25:24;;;;;;;9.45;4.97;;;;;;;;;;5027908;28;20068;-56
2023/03/19 00:27:49;;;;;;;12.13;6.38;;;;;;;;;;5024238;28;20048;-56
2023/03/19 00:30:15;;;;;;;15.70;8.18;;;;;;;;;;5023928;28;20029;-58
2023/03/19 00:32:40;;;;;;;21.30;8.85;;;;;;;;;;5025447;28;20029;-55
2023/03/19 00:35:07;;;;;;;14.85;7.50;;;;;;;;;;5022346;28;20079;-58
2023/03/19 00:37:33;;;;;;;14.32;8.35;;;;;;;;;;5021668;28;20564;-57
2023/03/19 00:39:58;;;;;;;13.25;8.13;;;;;;;;;;5023094;28;20043;-57
2023/03/19 00:42:23;;;;;;;13.85;8.30;;;;;;;;;;5022124;28;20043;-56
2023/03/19 00:44:49;;;;;;;14.00;7.88;;;;;;;;;;5021847;28;20033;-58
2023/03/19 00:47:14;;;;;;;13.07;7.68;;;;;;;;;;5023976;28;20068;-57
2023/03/19 00:49:39;;;;;;;17.08;7.60;;;;;;;;;;5006384;28;20040;-59
2023/03/19 00:52:05;;;;;;;15.23;6.97;;;;;;;;;;5022252;28;20033;-59
2023/03/19 00:54:31;;;;;;;12.35;7.55;;;;;;;;;;5024369;28;20385;-56
2023/03/19 00:56:57;;;;;;;15.43;7.63;;;;;;;;;;5025821;28;20079;-59
2023/03/19 00:59:24;;;;;;;13.68;7.00;;;;;;;;;;5021272;28;20658;-62
2023/03/19 01:01:50;;;;;;;15.70;7.28;;;;;;;;;;5021846;28;20030;-58
2023/03/19 01:04:16;;;;;;;14.55;6.88;;;;;;;;;;5022275;28;20026;-59
2023/03/19 01:06:42;;;;;;;11.43;6.20;;;;;;;;;;5022843;28;20053;-59
2023/03/19 01:09:07;;;;;;;10.52;6.63;;;;;;;;;;5038476;28;20444;-58
2023/03/19 01:11:34;;;;;;;11.15;6.65;;;;;;;;;;5005597;28;20481;-56
2023/03/19 01:14:00;;;;;;;11.88;7.07;;;;;;;;;;5024756;28;20030;-62
2023/03/19 01:16:25;;;;;;;12.57;7.60;;;;;;;;;;5023064;28;20107;-57
2023/03/19 01:18:51;;;;;;;10.27;6.95;;;;;;;;;;5012797;28;20021;-58
2023/03/19 01:21:17;;;;;;;11.13;6.95;;;;;;;;;;5022259;28;20091;-61
2023/03/19 01:23:45;;;;;;;15.20;7.00;;;;;;;;;;5026742;28;20037;-57
2023/03/19 01:26:11;;;;;;;14.88;7.88;;;;;;;;;;5024039;28;20026;-58
2023/03/19 01:28:37;;;;;;;12.60;7.50;;;;;;;;;;5022346;28;20032;-62
2023/03/19 01:31:06;;;;;;;12.77;7.50;;;;;;;;;;5021678;28;20107;-58
2023/03/19 01:33:57;;;;;;;11.18;6.82;;;;;;;;;;5020442;28;20042;-58
2023/03/19 01:36:32;;;;;;;13.40;7.22;;;;;;;;;;5020416;28;20029;-55
2023/03/19 01:39:03;;;;;;;14.43;7.50;;;;;;;;;;5020384;28;20033;-57
2023/03/19 01:41:29;;;;;;;15.18;8.02;;;;;;;;;;5021907;28;20069;-58
2023/03/19 01:44:02;;;;;;;12.35;6.85;;;;;;;;;;5004932;28;20121;-56
2023/03/19 01:46:38;;;;;;;16.38;7.93;;;;;;;;;;5023985;28;20029;-60
2023/03/19 01:49:23;;;;;;;11.57;6.88;;;;;;;;;;5022220;28;20129;-59
2023/03/19 01:51:58;;;;;;;16.35;7.78;;;;;;;;;;5032773;28;20119;-58
2023/03/19 01:54:31;;;;;;;13.40;7.43;;;;;;;;;;5021882;28;20041;-60
2023/03/19 01:57:12;;;;;;;13.43;7.28;;;;;;;;;;5030138;28;20037;-59
2023/03/19 01:59:57;;;;;;;11.88;7.00;;;;;;;;;;5022431;28;20072;-61
2023/03/19 02:02:42;;;;;;;13.23;7.53;;;;;;;;;;5025540;28;20216;-57
2023/03/19 02:05:24;;;;;;;9.48;6.47;;;;;;;;;;5028389;28;20069;-62
2023/03/19 02:07:51;;;;;;;15.18;7.53;;;;;;;;;;5024683;28;20029;-60
2023/03/19 02:10:17;;;;;;;12.90;7.07;;;;;;;;;;5025565;28;20485;-59
2023/03/19 02:12:42;;;;;;;13.90;7.43;;;;;;;;;;5030526;28;20087;-61
2023/03/19 02:15:08;;;;;;;19.10;7.63;;;;;;;;;;5025093;28;20041;-55
2023/03/19 02:17:34;;;;;;;15.80;7.28;;;;;;;;;;5025363;28;20028;-59
2023/03/19 02:19:59;;;;;;;14.23;7.80;;;;;;;;;;5030144;28;20789;-56
2023/03/19 02:22:25;;;;;;;17.10;7.53;;;;;;;;;;5013153;28;20028;-57
2023/03/19 02:24:54;;;;;;;14.38;7.93;;;;;;;;;;5027495;28;20075;-57
2023/03/19 02:27:21;;;;;;;12.52;7.30;;;;;;;;;;5033522;28;20757;-60
2023/03/19 02:29:48;;;;;;;;;;;;;;;;;;5026331;28;20025;-58
2023/03/19 02:32:13;;;;;;;12.57;7.22;;;;;;;;;;5025884;28;19936;-58
2023/03/19 02:34:41;;;;;;;14.23;7.03;;;;;;;;;;5016562;28;20030;-57
2023/03/19 02:37:09;;;;;;;13.73;7.68;;;;;;;;;;5015613;28;20045;-55
2023/03/19 02:39:54;;;;;;;11.80;6.88;;;;;;;;;;5028662;28;20038;-56
2023/03/19 02:42:21;;;;;;;15.45;7.00;;;;;;;;;;5032693;28;20088;-56
2023/03/19 02:44:47;;;;;;;15.25;7.80;;;;;;;;;;5025507;28;20037;-56
2023/03/19 02:47:12;;;;;;;17.50;7.78;;;;;;;;;;5024875;28;20038;-58
2023/03/19 02:49:38;;;;;;;13.05;7.22;;;;;;;;;;5029139;28;20033;-57
2023/03/19 02:52:03;;;;;;;17.23;8.05;;;;;;;;;;5026506;28;20032;-58
2023/03/19 02:54:28;;;;;;;16.63;8.57;;;;;;;;;;5024432;28;20037;-61
2023/03/19 02:56:54;;;;;;;13.25;7.88;;;;;;;;;;5025432;28;20405;-58
2023/03/19 02:59:19;;;;;;;11.32;7.25;;;;;;;;;;5025969;28;20045;-56
2023/03/19 03:01:45;;;;;;;14.55;7.32;;;;;;;;;;5026974;28;20021;-60
2023/03/19 03:04:10;;;;;;;13.23;7.53;;;;;;;;;;5027505;28;20105;-58
2023/03/19 03:06:36;;;;;;;17.30;8.05;;;;;;;;;;5024958;28;20033;-57
2023/03/19 03:09:02;;;;;;;13.63;7.65;;;;;;;;;;5023971;28;20029;-55
2023/03/19 03:11:27;;;;;;;12.88;7.40;;;;;;;;;;5012948;28;20033;-57
2023/03/19 03:13:53;;;;;;;13.63;7.80;;;;;;;;;;5024750;28;20034;-56
2023/03/19 03:16:18;;;;;;;11.30;7.25;;;;;;;;;;5027220;28;20109;-59
2023/03/19 03:18:43;;;;;;;11.77;6.97;;;;;;;;;;5028662;28;20021;-60
2023/03/19 03:21:09;;;;;;;13.18;7.75;;;;;;;;;;5027041;28;20025;-58
2023/03/19 03:23:35;;;;;;;10.40;6.95;;;;;;;;;;5022601;28;20386;-60
2023/03/19 03:26:00;;;;;;;14.50;7.90;;;;;;;;;;5020680;28;20068;-57
2023/03/19 03:28:26;;;;;;;14.95;7.85;;;;;;;;;;5023379;28;20120;-57
2023/03/19 03:30:57;;;;;;;15.48;7.53;;;;;;;;;;5023519;28;20387;-56
2023/03/19 03:33:22;;;;;;;10.65;7.15;;;;;;;;;;5023726;28;20040;-58
2023/03/19 03:35:47;;;;;;;15.35;8.35;;;;;;;;;;5027483;28;20029;-59
2023/03/19 03:38:13;;;;;;;12.80;7.38;;;;;;;;;;5028177;28;20026;-59
2023/03/19 03:40:38;;;;;;;13.82;7.25;;;;;;;;;;5023109;28;20071;-61
2023/03/19 03:43:03;;;;;;;13.27;7.68;;;;;;;;;;5023011;28;20149;-57
2023/03/19 03:45:30;;;;;;;13.80;7.57;;;;;;;;;;5023809;28;20493;-59
2023/03/19 03:47:55;;;;;;;13.40;6.82;;;;;;;;;;5024189;28;20477;-60
2023/03/19 03:50:21;;;;;;;10.85;7.03;;;;;;;;;;5021632;28;20036;-56
2023/03/19 03:52:50;;;;;;;12.95;7.75;;;;;;;;;;5030545;28;20083;-59
2023/03/19 03:55:15;;;;;;;12.52;7.97;;;;;;;;;;5023892;28;21973;-56
2023/03/19 03:57:40;;;;;;;14.70;8.30;;;;;;;;;;5022051;28;20041;-57
2023/03/19 04:00:06;;;;;;;13.15;7.00;;;;;;;;;;5020943;28;20021;-60
2023/03/19 04:02:38;;;;;;;12.23;7.55;;;;;;;;;;5024383;28;20047;-61
2023/03/19 04:05:04;;;;;;;15.10;7.30;;;;;;;;;;5042303;28;20029;-57
2023/03/19 04:07:29;;;;;;;12.00;6.90;;;;;;;;;;5004918;28;21965;-60
2023/03/19 04:10:01;;;;;;;13.93;6.93;;;;;;;;;;5024539;28;20080;-58
2023/03/19 04:12:27;;;;;;;13.25;6.53;;;;;;;;;;5023365;28;20037;-58
2023/03/19 04:14:55;;;;;;;11.93;6.53;;;;;;;;;;5026252;28;20079;-58
2023/03/19 04:17:21;;;;;;;14.55;6.90;;;;;;;;;;5022552;28;20120;-59
2023/03/19 04:19:46;;;;;;;13.23;7.13;;;;;;;;;;5023362;28;20037;-58
2023/03/19 04:22:11;;;;;;;12.27;7.18;;;;;;;;;;5026566;28;20033;-57
2023/03/19 04:24:37;;;;;;;15.18;7.13;;;;;;;;;;5025322;28;20026;-58
2023/03/19 04:27:02;;;;;;;11.90;7.72;;;;;;;;;;5022562;28;20018;-59
2023/03/19 04:29:28;;;;;;;11.27;7.07;;;;;;;;;;5023310;28;20532;-56
2023/03/19 04:31:53;;;;;;;12.15;6.88;;;;;;;;;;5023742;28;20067;-60
2023/03/19 04:34:19;;;;;;;13.25;6.80;;;;;;;;;;5024523;28;20870;-55
2023/03/19 04:36:44;;;;;;;12.23;7.38;;;;;;;;;;5022920;28;20889;-58
2023/03/19 04:39:13;;;;;;;13.30;7.35;;;;;;;;;;5032217;28;20026;-60
2023/03/19 04:41:42;;;;;;;10.65;6.82;;;;;;;;;;5039135;28;20040;-55
2023/03/19 04:44:26;;;;;;;16.98;7.78;;;;;;;;;;5013646;28;20037;-58
2023/03/19 04:46:52;;;;;;;14.55;7.20;;;;;;;;;;5022243;28;20029;-59
2023/03/19 04:49:19;;;;;;;12.77;7.60;;;;;;;;;;5023950;28;20037;-59
2023/03/19 04:51:46;;;;;;;14.70;7.80;;;;;;;;;;5022315;28;20068;-58
2023/03/19 04:54:11;;;;;;;14.02;7.82;;;;;;;;;;5023178;28;20136;-58
2023/03/19 04:56:37;;;;;;;17.73;8.38;;;;;;;;;;5026070;28;20025;-55
2023/03/19 04:59:02;;;;;;;13.43;8.23;;;;;;;;;;5022074;28;20049;-58
2023/03/19 05:01:27;;;;;;;13.18;7.57;;;;;;;;;;5022655;28;20037;-57
2023/03/19 05:04:04;;;;;;;;;;;;;;;;;;5026504;28;20040;-59
2023/03/19 05:06:32;;;;;;;13.57;7.25;;;;;;;;;;5021079;28;19913;-58
2023/03/19 05:08:58;;;;;;;12.82;7.07;;;;;;;;;;5023280;28;20079;-57
2023/03/19 05:11:24;;;;;;;12.25;6.15;;;;;;;;;;5023168;28;20030;-58
2023/03/19 05:13:59;;;;;;;11.55;6.43;;;;;;;;;;5014948;28;21578;-55
2023/03/19 05:16:30;;;;;;;12.40;5.68;;;;;;;;;;5019504;28;20435;-56
2023/03/19 05:18:56;;;;;;;11.82;6.13;;;;;;;;;;5023194;28;20501;-57
2023/03/19 05:21:22;;;;;;;9.20;5.50;;;;;;;;;;5018411;28;20127;-57
2023/03/19 05:23:51;;;;;;;15.15;7.28;;;;;;;;;;5022131;28;20116;-58
2023/03/19 05:26:17;;;;;;;9.18;6.00;;;;;;;;;;5012670;28;20507;-60
2023/03/19 05:29:13;;;;;;;9.15;5.85;;;;;;;;;;5024542;28;20124;-56
2023/03/19 05:31:52;;;;;;;15.07;6.68;;;;;;;;;;5025805;28;20090;-58
2023/03/19 05:34:19;;;;;;;10.77;6.00;;;;;;;;;;5024336;28;20076;-57
2023/03/19 05:36:45;;;;;;;10.15;6.18;;;;;;;;;;5024993;28;20855;-56
2023/03/19 05:39:15;;;;;;;8.52;5.95;;;;;;;;;;5026477;28;20029;-57
2023/03/19 05:41:42;;;;;;;10.25;6.07;;;;;;;;;;5025161;28;20045;-58
2023/03/19 05:44:08;;;;;;;10.80;6.20;;;;;;;;;;5026000;28;20033;-61
2023/03/19 05:47:00;;;;;;;12.60;6.97;;;;;;;;;;5021919;28;20030;-61
2023/03/19 05:49:30;;;;;;;10.30;6.68;;;;;;;;;;5027341;28;20552;-55
2023/03/19 05:51:55;;;;;;;10.20;6.47;;;;;;;;;;5028150;28;20029;-54
2023/03/19 05:54:21;;;;;;;13.38;7.10;;;;;;;;;;5025618;28;20033;-56
2023/03/19 05:56:53;;;;;;;13.63;7.53;;;;;;;;;;5027523;28;20042;-58
2023/03/19 05:59:33;;;;;;;13.70;6.43;;;;;;;;;;5024490;28;20052;-56
2023/03/19 06:02:30;;;;;;;12.43;6.57;;;;;;;;;;5023516;28;20445;-59
2023/03/19 06:05:12;;;;;;;9.73;6.63;;;;;;;;;;5024697;28;20128;-54
2023/03/19 06:07:38;;;;;;;10.48;6.18;;;;;;;;;;5023240;28;20034;-57
2023/03/19 06:10:08;;;;;;;11.38;6.53;;;;;;;;;;5024407;28;20516;-60
2023/03/19 06:12:33;;;;;;;13.38;7.03;;;;;;;;;;5023719;28;20620;-58
2023/03/19 06:15:18;;;;;;;12.60;6.95;;;;;;;;;;5010890;28;20041;-58
2023/03/19 06:17:44;;;;;;;13.75;7.45;;;;;;;;;;5024805;28;20041;-59
2023/03/19 06:20:11;;;;;;;10.48;6.63;;;;;;;;;;5024653;28;20090;-57
2023/03/19 06:22:37;;;;;;;10.82;6.75;;;;;;;;;;5028072;28;20044;-57
2023/03/19 06:25:03;;;;;;;9.40;6.35;;;;;;;;;;5024074;28;20029;-56
2023/03/19 06:27:32;;;;;;;14.05;7.07;;;;;;;;;;5032725;28;20242;-53
2023/03/19 06:30:11;;;;;;;12.63;6.78;;;;;;;;;;5023126;28;20029;-55
2023/03/19 06:32:37;;;;;;;11.10;6.75;;;;;;;;;;5022994;28;20047;-59
2023/03/19 06:35:07;;;;;;;9.40;6.22;;;;;;;;;;5021952;28;20102;-58
2023/03/19 06:37:33;;;;;;;14.02;6.80;;;;;;;;;;5023965;28;20513;-57
2023/03/19 06:39:58;;;;;;;11.30;6.53;;;;;;;;;;5026118;28;20037;-58
2023/03/19 06:42:24;;;;;;;9.07;6.38;;;;;;;;;;5023767;28;20048;-58
2023/03/19 06:44:49;;;;;;;11.55;6.45;;;;;;;;;;5028313;28;20033;-56
2023/03/19 06:47:15;;;;;;;10.85;6.40;;;;;;;;;;5024002;28;20799;-56
2023/03/19 06:49:41;;;;;;;9.43;6.65;;;;;;;;;;5023201;28;20064;-55
2023/03/19 06:52:06;;;;;;;10.35;6.53;;;;;;;;;;5024579;28;20033;-58
2023/03/19 06:54:31;;;;;;;11.90;6.57;;;;;;;;;;5024488;28;20048;-60
2023/03/19 06:56:57;;;;;;;9.18;6.50;;;;;;;;;;5024733;28;20370;-59
2023/03/19 06:59:22;;;;;;;14.02;6.82;;;;;;;;;;5024863;28;20044;-56
2023/03/19 07:01:47;;;;;;;12.20;6.90;;;;;;;;;;5024659;28;20070;-60
2023/03/19 07:04:13;;;;;;;10.98;6.97;;;;;;;;;;5025393;28;20026;-60
2023/03/19 07:06:38;;;;;;;10.00;6.10;;;;;;;;;;5022943;28;20021;-58
2023/03/19 07:09:03;;;;;;;10.45;6.18;;;;;;;;;;5024408;28;20030;-59
2023/03/19 07:11:29;;;;;;;9.77;6.32;;;;;;;;;;5023559;28;20086;-55
2023/03/19 07:13:54;;;;;;;9.25;6.15;;;;;;;;;;5025382;28;20119;-57
2023/03/19 07:16:20;;;;;;;11.70;6.97;;;;;;;;;;5024886;28;20112;-55
2023/03/19 07:18:45;;;;;;;8.70;5.75;;;;;;;;;;5024661;28;20120;-57
2023/03/19 07:21:10;;;;;;;14.13;6.55;;;;;;;;;;5027263;28;20671;-58
2023/03/19 07:23:35;;;;;;;10.23;6.25;;;;;;;;;;5022943;28;20502;-56
2023/03/19 07:26:01;;;;;;;9.43;5.57;;;;;;;;;;5023041;28;20486;-59
2023/03/19 07:28:26;;;;;;;10.55;5.47;;;;;;;;;;5026029;28;20074;-59
2023/03/19 07:30:52;;;;;;;9.02;5.30;;;;;;;;;;5025775;28;20037;-57
2023/03/19 07:33:18;;;;;;;10.98;5.30;;;;;;;;;;5023723;28;20128;-58
2023/03/19 07:35:43;;;;;;;10.10;5.90;;;;;;;;;;5026975;28;20065;-55
2023/03/19 07:38:08;;;;;;;15.30;6.90;;;;;;;;;;5025136;28;20025;-60
2023/03/19 07:40:33;;;;;;;9.02;5.70;;;;;;;;;;5024532;28;20025;-59
2023/03/19 07:42:59;;;;;;;10.75;5.07;;;;;;;;;;5022938;28;20037;-59
2023/03/19 07:45:24;;;;;;;7.45;4.15;;;;;;;;;;5024464;28;20033;-58
2023/03/19 07:47:50;;;;;;;8.52;3.95;;;;;;;;;;5026786;28;20064;-60
2023/03/19 07:50:15;;;;;;;6.55;3.50;;;;;;;;;;5026581;28;20038;-62
2023/03/19 07:52:41;;;;;;;7.75;3.50;;;;;;;;;;5023336;28;20804;-61
2023/03/19 07:55:06;;;;;;;7.95;3.53;;;;;;;;;;5022641;28;20029;-58
2023/03/19 07:57:31;;;;;;;6.95;3.40;;;;;;;;;;5024358;28;20474;-58
2023/03/19 07:59:57;;;;;;;7.03;3.60;;;;;;;;;;5025818;28;20140;-60
2023/03/19 08:02:22;;;;;;;5.70;3.40;;;;;;;;;;5026450;28;20031;-55
2023/03/19 08:04:47;;;;;;;6.70;3.08;;;;;;;;;;5025755;28;20037;-58
2023/03/19 08:07:13;;;;;;;7.25;3.08;;;;;;;;;;5021493;28;20048;-55
2023/03/19 08:09:38;;;;;;;5.60;2.97;;;;;;;;;;5023229;28;20040;-55
2023/03/19 08:12:05;;;;;;;6.30;3.30;;;;;;;;;;5023133;28;20033;-59
2023/03/19 08:14:30;;;;;;;5.63;2.85;;;;;;;;;;5031878;28;20498;-57
2023/03/19 08:16:56;;;;;;;6.03;3.50;;;;;;;;;;5019314;28;20026;-56
2023/03/19 08:19:22;;;;;;;5.72;2.80;;;;;;;;;;5023845;28;20387;-57
2023/03/19 08:21:47;;;;;;;5.95;2.88;;;;;;;;;;5023428;28;20037;-57
2023/03/19 08:24:12;;;;;;;5.80;3.28;;;;;;;;;;5025009;28;20033;-58
2023/03/19 08:26:38;;;;;;;5.63;3.03;;;;;;;;;;5022617;28;20037;-58
2023/03/19 08:29:03;;;;;;;7.05;2.97;;;;;;;;;;5021418;28;20498;-58
2023/03/19 08:31:29;;;;;;;6.18;2.60;;;;;;;;;;5023076;28;20530;-57
2023/03/19 08:33:55;;;;;;;7.00;2.83;;;;;;;;;;5023772;28;20044;-58
2023/03/19 08:36:20;;;;;;;6.55;2.80;;;;;;;;;;5036131;28;20092;-58
2023/03/19 08:38:45;;;;;;;6.20;2.65;;;;;;;;;;5025405;28;20503;-57
2023/03/19 08:41:11;;;;;;;5.97;2.90;;;;;;;;;;5024623;28;20025;-56
2023/03/19 08:43:36;;;;;;;6.53;3.00;;;;;;;;;;5022836;28;20071;-57
2023/03/19 08:46:02;;;;;;;5.97;3.00;;;;;;;;;;5020738;28;20489;-53
2023/03/19 08:48:28;;;;;;;4.03;2.38;;;;;;;;;;5021918;28;20034;-55
2023/03/19 08:50:54;;;;;;;6.10;3.25;;;;;;;;;;5024168;28;20029;-56
2023/03/19 08:53:19;;;;;;;5.80;3.10;;;;;;;;;;5024130;28;20691;-58
2023/03/19 08:55:49;;;;;;;5.13;3.03;;;;;;;;;;5025214;28;20035;-57
2023/03/19 08:58:15;;;;;;;5.88;2.90;;;;;;;;;;5021271;28;20037;-57
2023/03/19 09:00:40;;;;;;;6.15;2.83;;;;;;;;;;5025288;28;20038;-55
2023/03/19 09:03:05;;;;;;;5.28;2.70;;;;;;;;;;5023505;28;20060;-57
2023/03/19 09:05:31;;;;;;;4.22;2.40;;;;;;;;;;5019541;28;20025;-58
2023/03/19 09:07:56;;;;;;;4.40;2.55;;;;;;;;;;5018092;28;20631;-58
2023/03/19 09:10:21;;;;;;;4.90;2.67;;;;;;;;;;5024222;28;20078;-59
2023/03/19 09:12:46;;;;;;;5.78;2.60;;;;;;;;;;5026552;28;20080;-58
2023/03/19 09:15:12;;;;;;;4.60;2.28;;;;;;;;;;5027617;28;20506;-59
2023/03/19 09:17:37;;;;;;;5.15;2.50;;;;;;;;;;5025763;28;20036;-57
2023/03/19 09:20:04;;;;;;;5.35;2.42;;;;;;;;;;5009516;28;20091;-54
2023/03/19 09:22:30;;;;;;;6.18;2.35;;;;;;;;;;5026528;28;20034;-56
2023/03/19 09:24:55;;;;;;;4.80;2.35;;;;;;;;;;5027045;28;20043;-57
2023/03/19 09:27:21;;;;;;;4.18;2.30;;;;;;;;;;5028770;28;20033;-59
2023/03/19 09:29:46;;;;;;;7.22;2.50;;;;;;;;;;5027617;28;20136;-57
2023/03/19 09:32:12;;;;;;;4.35;2.33;;;;;;;;;;5027941;28;20045;-57
2023/03/19 09:34:37;;;;;;;5.80;2.60;;;;;;;;;;5026478;28;20021;-55
2023/03/19 09:37:03;;;;;;;4.40;2.20;;;;;;;;;;5028590;28;20115;-54
2023/03/19 09:39:28;;;;;;;5.38;2.40;;;;;;;;;;5026877;28;20156;-58
2023/03/19 09:41:59;;;;;;;4.68;2.17;;;;;;;;;;5024926;28;20037;-52
2023/03/19 09:44:24;;;;;;;4.07;2.28;;;;;;;;;;5025319;28;20103;-58
2023/03/19 09:46:58;;;;;;;4.25;2.28;;;;;;;;;;5026138;28;20144;-53
2023/03/19 09:49:32;;;;;;;3.88;2.20;;;;;;;;;;5025262;28;20029;-58
2023/03/19 09:52:02;;;;;;;5.32;2.80;;;;;;;;;;5016077;28;20039;-59
2023/03/19 09:54:30;;;;;;;5.57;2.40;;;;;;;;;;5023666;28;20047;-60
2023/03/19 09:56:56;;;;;;;6.13;2.50;;;;;;;;;;5024911;28;20075;-58
2023/03/19 09:59:22;;;;;;;5.93;2.45;;;;;;;;;;5024134;28;20033;-61
2023/03/19 10:01:57;;;;;;;6.07;2.33;;;;;;;;;;5025488;28;20478;-59
2023/03/19 10:04:26;;;;;;;4.40;2.30;;;;;;;;;;5026034;28;20100;-56
2023/03/19 10:06:54;;;;;;;4.35;2.30;;;;;;;;;;5027628;28;20438;-59
2023/03/19 10:09:25;;;;;;;4.25;2.30;;;;;;;;;;5027524;28;20060;-60
2023/03/19 10:11:51;;;;;;;4.43;2.30;;;;;;;;;;5026727;28;20649;-59
2023/03/19 10:14:35;;;;;;;5.07;2.45;;;;;;;;;;5024053;28;20056;-55
2023/03/19 10:17:03;;;;;;;5.32;2.70;;;;;;;;;;5025209;28;20120;-56
2023/03/19 10:19:38;;;;;;;6.18;2.63;;;;;;;;;;5015195;28;20030;-61
2023/03/19 10:22:07;;;;;;;3.90;2.25;;;;;;;;;;5013483;28;20515;-57
2023/03/19 10:24:38;;;;;;;4.70;2.10;;;;;;;;;;5025142;28;20056;-57
2023/03/19 10:27:10;;;;;;;4.18;2.15;;;;;;;;;;5018361;28;20029;-58
2023/03/19 10:29:36;;;;;;;5.18;2.45;;;;;;;;;;5024589;28;20029;-56
2023/03/19 10:32:08;;;;;;;5.20;2.33;;;;;;;;;;5018068;28;20584;-58
2023/03/19 10:34:36;;;;;;;6.25;2.97;;;;;;;;;;5024950;28;20040;-56
2023/03/19 10:37:03;;;;;;;7.85;2.45;;;;;;;;;;5020481;28;20039;-58
2023/03/19 10:39:33;;;;;;;5.72;2.38;;;;;;;;;;5025729;28;20474;-57
2023/03/19 10:42:16;;;;;;;4.70;2.40;;;;;;;;;;5023198;28;20037;-55
2023/03/19 10:45:02;;;;;;;7.38;2.25;;;;;;;;;;5018463;28;20029;-58
2023/03/19 10:47:27;;;;;;;5.78;2.30;;;;;;;;;;5018232;28;20417;-59
2023/03/19 10:49:54;;;;;;;5.57;2.40;;;;;;;;;;5005102;28;20763;-58
2023/03/19 10:52:25;;;;;;;5.10;2.30;;;;;;;;;;5018842;28;20037;-57
2023/03/19 10:55:14;;;;;;;7.22;2.75;;;;;;;;;;5022837;28;20104;-59
2023/03/19 10:57:40;;;;;;;7.60;2.28;;;;;;;;;;5020433;28;20046;-58
2023/03/19 11:00:14;;;;;;;6.47;2.13;;;;;;;;;;5018314;28;20120;-57
2023/03/19 11:02:45;;;;;;;4.68;2.20;;;;;;;;;;5018972;28;20084;-58
2023/03/19 11:05:13;;;;;;;8.35;2.10;;;;;;;;;;5017275;28;20040;-55
2023/03/19 11:07:39;;;;;;;4.30;2.08;;;;;;;;;;5014038;28;20581;-58
2023/03/19 11:10:11;;;;;;;4.22;2.15;;;;;;;;;;5025207;28;20398;-56
2023/03/19 11:12:37;;;;;;;3.75;2.08;;;;;;;;;;5031123;28;20503;-59
2023/03/19 11:15:15;;;;;;;4.30;2.28;;;;;;;;;;5023738;28;20059;-59
2023/03/19 11:17:47;;;;;;;4.28;2.10;;;;;;;;;;5013649;28;20033;-58
2023/03/19 11:20:42;;;;;;;8.15;2.53;;;;;;;;;;5032367;28;20572;-57
2023/03/19 11:23:18;;;;;;;8.02;2.35;;;;;;;;;;5018819;28;20042;-59
2023/03/19 11:25:51;;;;;;;3.45;2.00;;;;;;;;;;5016211;28;20025;-58
2023/03/19 11:28:18;;;;;;;6.18;2.40;;;;;;;;;;5020001;28;20447;-59
2023/03/19 11:30:43;;;;;;;;;;;;;;;;;;5023041;28;20051;-59
2023/03/19 11:33:27;;;;;;;5.63;2.07;;;;;;;;;;5018304;28;19916;-58
2023/03/19 11:35:53;;;;;;;3.60;2.17;;;;;;;;;;5016958;28;20305;-59
2023/03/19 11:38:38;;;;;;;5.50;2.20;;;;;;;;;;5023474;28;20537;-58
2023/03/19 11:41:12;;;;;;;4.22;2.00;;;;;;;;;;5014890;28;20041;-56
2023/03/19 11:43:47;;;;;;;6.45;2.08;;;;;;;;;;5016336;28;20166;-63
2023/03/19 11:46:21;;;;;;;4.70;2.42;;;;;;;;;;5018238;28;20037;-58
2023/03/19 11:48:46;;;;;;;4.10;2.25;;;;;;;;;;5016655;28;20075;-60
2023/03/19 11:51:35;;;;;;;8.15;2.28;;;;;;;;;;5021147;28;20037;-56
2023/03/19 11:54:07;;;;;;;5.22;2.25;;;;;;;;;;5017396;28;20087;-56
2023/03/19 11:56:54;;;;;;;4.57;2.13;;;;;;;;;;5017026;28;20029;-57
2023/03/19 11:59:24;;;;;;;7.10;2.38;;;;;;;;;;5021626;28;20052;-57
2023/03/19 12:02:05;;;;;;;6.47;2.30;;;;;;;;;;5014239;28;20048;-55
2023/03/19 12:04:30;;;;;;;5.18;2.40;;;;;;;;;;5014545;28;20026;-58
2023/03/19 12:07:15;;;;;;;5.38;2.50;;;;;;;;;;5023677;28;20034;-59
2023/03/19 12:10:02;;;;;;;5.32;2.20;;;;;;;;;;5018899;28;20037;-58
2023/03/19 12:12:27;;;;;;;4.88;2.20;;;;;;;;;;5016771;28;20063;-61
2023/03/19 12:14:55;;;;;;;4.55;2.22;;;;;;;;;;5021307;28;20021;-59
2023/03/19 12:17:27;;;;;;;5.22;2.50;;;;;;;;;;5017008;28;20112;-58
2023/03/19 12:20:11;;;;;;;5.55;2.42;;;;;;;;;;5021522;28;20033;-62
2023/03/19 12:22:37;;;;;;;5.00;2.20;;;;;;;;;;5020329;28;20549;-57
2023/03/19 12:25:03;;;;;;;5.20;2.63;;;;;;;;;;5015877;28;20103;-57
2023/03/19 12:27:33;;;;;;;6.20;2.30;;;;;;;;;;5022733;28;20450;-58
2023/03/19 12:30:04;;;;;;;5.53;2.70;;;;;;;;;;5019055;28;20025;-60
2023/03/19 12:32:41;;;;;;;4.78;2.40;;;;;;;;;;5018490;28;20143;-57
2023/03/19 12:35:12;;;;;;;5.10;2.47;;;;;;;;;;5021043;28;20466;-58
2023/03/19 12:37:44;;;;;;;4.63;2.40;;;;;;;;;;5016052;28;20022;-58
2023/03/19 12:40:25;;;;;;;5.18;2.30;;;;;;;;;;5019904;28;20029;-58
2023/03/19 12:42:51;;;;;;;4.88;2.53;;;;;;;;;;5035995;28;20033;-57
2023/03/19 12:45:27;;;;;;;5.20;2.65;;;;;;;;;;5017613;28;20095;-58
2023/03/19 12:48:05;;;;;;;4.38;2.30;;;;;;;;;;5037567;28;20318;-59
2023/03/19 12:50:32;;;;;;;6.78;2.42;;;;;;;;;;5018608;28;20036;-57
2023/03/19 12:52:59;;;;;;;6.55;2.47;;;;;;;;;;5016088;28;20097;-58
2023/03/19 12:55:42;;;;;;;4.80;2.20;;;;;;;;;;5024279;28;20690;-57
2023/03/19 12:58:07;;;;;;;5.97;2.50;;;;;;;;;;5018814;28;20675;-56
2023/03/19 13:00:34;;;;;;;7.53;2.42;;;;;;;;;;5017295;28;20029;-58
2023/03/19 13:03:09;;;;;;;5.93;2.40;;;;;;;;;;5024855;28;20543;-59
2023/03/19 13:05:37;;;;;;;4.05;2.22;;;;;;;;;;5005123;28;20640;-59
2023/03/19 13:08:05;;;;;;;5.10;2.20;;;;;;;;;;5025551;28;20069;-58
2023/03/19 13:10:31;;;;;;;4.32;2.40;;;;;;;;;;5017876;28;20040;-59
2023/03/19 13:12:57;;;;;;;7.40;2.20;;;;;;;;;;5020902;28;20033;-58
2023/03/19 13:15:35;;;;;;;6.22;2.35;;;;;;;;;;5024390;28;20038;-57
2023/03/19 13:18:07;;;;;;;6.20;2.28;;;;;;;;;;5014672;28;20083;-59
2023/03/19 13:20:42;;;;;;;7.47;2.50;;;;;;;;;;5010883;28;20730;-59
2023/03/19 13:23:10;;;;;;;4.25;2.22;;;;;;;;;;5012619;28;20029;-58
2023/03/19 13:25:38;;;;;;;4.95;2.55;;;;;;;;;;5015933;28;20038;-61
2023/03/19 13:28:10;;;;;;;6.18;2.50;;;;;;;;;;5023851;28;20104;-60
2023/03/19 13:30:41;;;;;;;3.45;2.08;;;;;;;;;;5017037;28;20117;-62
2023/03/19 13:33:12;;;;;;;5.20;2.15;;;;;;;;;;5016347;28;20565;-57
2023/03/19 13:35:48;;;;;;;5.13;2.20;;;;;;;;;;5020837;28;20032;-61
2023/03/19 13:38:33;;;;;;;4.50;2.40;;;;;;;;;;5017694;28;20048;-58
2023/03/19 13:40:59;;;;;;;7.88;2.45;;;;;;;;;;5013209;28;20040;-59
2023/03/19 13:43:27;;;;;;;5.90;2.42;;;;;;;;;;5010148;28;20041;-56
2023/03/19 13:46:04;;;;;;;4.93;2.70;;;;;;;;;;5014672;28;20025;-60
2023/03/19 13:48:42;;;;;;;4.35;2.10;;;;;;;;;;5021782;28;20029;-58
2023/03/19 13:51:11;;;;;;;5.97;2.13;;;;;;;;;;5024327;28;20033;-58
2023/03/19 13:53:38;;;;;;;2.90;1.80;;;;;;;;;;5008032;28;20044;-56
2023/03/19 13:56:05;;;;;;;3.70;2.47;;;;;;;;;;5020489;28;20033;-53
2023/03/19 13:58:50;;;;;;;5.57;2.25;;;;;;;;;;5019673;28;20095;-57
2023/03/19 14:01:25;;;;;;;6.15;2.20;;;;;;;;;;5021866;28;20030;-57
2023/03/19 14:03:57;;;;;;;4.65;2.05;;;;;;;;;;5023168;28;20037;-58
2023/03/19 14:06:31;;;;;;;3.85;1.85;;;;;;;;;;5010248;28;20041;-60
2023/03/19 14:08:57;;;;;;;3.13;2.20;;;;;;;;;;5025987;28;20036;-60
2023/03/19 14:11:23;;;;;;;4.80;2.15;;;;;;;;;;5026813;28;20033;-55
2023/03/19 14:13:50;;;;;;;4.63;2.20;;;;;;;;;;5018758;28;20065;-56
2023/03/19 14:16:28;;;;;;;7.40;2.50;;;;;;;;;;5022190;28;20110;-60
2023/03/19 14:18:59;;;;;;;5.45;2.70;;;;;;;;;;5027391;28;20147;-59
2023/03/19 14:21:32;;;;;;;5.15;2.70;;;;;;;;;;5018328;28;20121;-60
2023/03/19 14:24:17;;;;;;;8.95;3.00;;;;;;;;;;5024506;28;20124;-59
2023/03/19 14:26:43;;;;;;;7.40;3.05;;;;;;;;;;5017010;28;20621;-60
2023/03/19 14:29:12;;;;;;;5.93;3.25;;;;;;;;;;5017505;28;20037;-60
2023/03/19 14:31:37;;;;;;;7.80;3.13;;;;;;;;;;5023737;28;20104;-59
2023/03/19 14:34:21;;;;;;;7.88;3.70;;;;;;;;;;5018669;28;20033;-59
2023/03/19 14:36:50;;;;;;;8.45;3.20;;;;;;;;;;5026252;28;20470;-60
2023/03/19 14:39:26;;;;;;;7.07;3.20;;;;;;;;;;5018574;28;20041;-64
2023/03/19 14:42:15;;;;;;;4.93;2.75;;;;;;;;;;5018837;28;20068;-61
2023/03/19 14:44:43;;;;;;;5.28;2.30;;;;;;;;;;5021722;28;20076;-61
2023/03/19 14:47:11;;;;;;;7.15;2.17;;;;;;;;;;5019984;28;20072;-60
2023/03/19 14:49:46;;;;;;;5.03;2.45;;;;;;;;;;5018165;28;20720;-59